Sierraville, CA

4:59 PM PDT on August 20, 2014 (GMT -0700)
Sierra Valley | Change Station
CLOSE
Current Station
Personal Weather Station
Location: Loyalton, CA
Elevation: 4990 ft
Nearby Weather Stations
Active Advisory: Fire Weather Watch

Elev 4990 ft 39.62 °N, 120.35 °W | Updated 10 minutes ago

Partly Cloudy
Partly Cloudy
78.3 °F
Feels Like 78 °F
N
14.0
Wind Variable Wind from West
Gusts 16.0 mph

Today
High -- | Low -- °F
--% Chance of Precip.
Yesterday
High -- | Low -- °F
Precip. -- in
6:18 AM 7:49 PM
Waning Crescent, 18% visible
Pressure 30.07 in
Visibility 10.0 miles
Clouds Few 7000 ft
Heat Index 78 °F
Dew Point 44 °F
Humidity 30%
Rainfall 0.00 in
Snow Depth Not available.
UV 4 out of 12
Pollen 6.70 out of 12
Air Quality Not available.
Flu Activity Not available.
METAR KTRK 202345Z 27012G18KT 10SM FEW070 24/03 A3007 RMK NOSPECI 10270

More Conditions Fewer Conditions

Pressure 30.07 in
Visibility 10.0 miles
Clouds Few 7000 ft
Heat Index 78 °F
Dew Point 44 °F
Humidity 30%
Rainfall 0.00 in
Snow Depth Not available.
UV 4 out of 12
Pollen 6.70 out of 12
Air Quality Not available.
Flu Activity Not available.
METAR KTRK 202345Z 27012G18KT 10SM FEW070 24/03 A3007 RMK NOSPECI 10270

More Conditions Fewer Conditions

10-Day Weather Forecast

Almanac

Astronomy

Aug. 20, 2014 Rise Set
Actual Time 6:18 AM PDT 7:49 PM PDT
Civil Twilight 5:49 AM PDT 8:18 PM PDT
Nautical Twilight 5:15 AM PDT 8:52 PM PDT
Astronomical Twilight 4:39 AM PDT 9:28 PM PDT
Moon 2:02 AM PDT 4:38 PM PDT
Length of Visible Light 14h 28m
Length of Day
13h 31m
Tomorrow will be 2m 22s shorter.
Waning Crescent, 18% of the Moon is Illuminated
Today
Waning Crescent
Aug 25
New
Sep 2
First Quarter
Sep 8
Full
Sep 15
Last Quarter

Today's Extremes

State Highs State Lows

Community

WunderPhotos

Upload Photos

1,745,801 photos uploaded!

Nearby

Snow Depth

Station Depth Elevation
Leavitt Meadows 0 in 7200 ft
Leavitt Lake 0 in 9400 ft
Adin Mountain 0 in 6200 ft
Cedar Pass 0 in 7100 ft

Earthquake Activity

City Distance Mag. Time & Date
No recent earthquake activity has been reported nearby.
Minimum magnitude displayed is 2.5.

Coastal Water Temperatures

Place Temperature
No Stations Reporting

Nearby Weather Stations